Time;durP1;ratioP1;P1;durP2;ratioP2;P2;SDS_P1;SDS_P2;PMS_P1;PMS_P2;Temp;Humidity;BMP_temperature;BMP_pressure;BME280_temperature;BME280_humidity;BME280_pressure;Samples;Min_cycle;Max_cycle;Signal;HPM_P1;HPM_P2
2021/08/01 00:00:17;;;;;;;9.25;4.95;;;;;;;29.73;43.86;99073.84;4500533;31;34091;-65
2021/08/01 00:02:45;;;;;;;6.97;4.72;;;;;;;29.72;43.90;99077.69;4500272;31;33830;-63
2021/08/01 00:05:12;;;;;;;10.20;4.65;;;;;;;29.72;43.88;99079.63;4500575;31;33226;-62
2021/08/01 00:07:40;;;;;;;8.43;4.55;;;;;;;29.72;43.89;99093.37;4500466;31;33630;-61
2021/08/01 00:10:08;;;;;;;8.23;4.57;;;;;;;29.73;43.91;99081.28;4498719;31;35133;-66
2021/08/01 00:12:36;;;;;;;7.55;5.20;;;;;;;29.71;43.92;99081.56;4485938;31;33420;-69
2021/08/01 00:15:06;;;;;;;5.75;4.07;;;;;;;29.71;43.92;99070.56;4483915;31;33801;-64
2021/08/01 00:17:34;;;;;;;7.28;4.57;;;;;;;29.72;43.92;99076.88;4484453;32;35279;-64
2021/08/01 00:20:01;;;;;;;8.68;4.50;;;;;;;29.71;43.93;99073.31;4489952;31;35150;-64
2021/08/01 00:22:30;;;;;;;7.30;4.75;;;;;;;29.70;43.96;99079.94;4498860;31;32476;-67
2021/08/01 00:24:57;;;;;;;7.40;4.62;;;;;;;29.70;44.00;99068.94;4500204;31;34594;-63
2021/08/01 00:27:25;;;;;;;7.00;4.53;;;;;;;29.70;43.80;99070.84;4500384;31;33938;-64
2021/08/01 00:29:52;;;;;;;6.60;4.70;;;;;;;29.69;43.85;99075.50;4500370;31;34233;-63
2021/08/01 00:32:21;;;;;;;5.93;4.53;;;;;;;29.69;43.92;99071.94;4500315;31;33825;-63
2021/08/01 00:34:48;;;;;;;7.43;4.35;;;;;;;29.69;44.11;99077.44;4500328;31;34388;-64
2021/08/01 00:37:16;;;;;;;8.02;4.50;;;;;;;29.69;44.17;99071.94;4499956;31;34183;-62
2021/08/01 00:39:44;;;;;;;7.45;4.60;;;;;;;29.68;44.22;99068.38;4500203;31;33929;-62
2021/08/01 00:42:12;;;;;;;7.97;4.22;;;;;;;29.69;44.23;99063.69;4500344;31;33590;-62
2021/08/01 00:44:39;;;;;;;6.35;4.85;;;;;;;29.67;44.27;99053.00;4500246;31;33378;-63
2021/08/01 00:47:07;;;;;;;5.75;4.28;;;;;;;29.68;44.28;99043.63;4500183;31;34924;-62
2021/08/01 00:49:35;;;;;;;5.60;4.30;;;;;;;29.67;44.31;99047.50;4500184;31;34703;-63
2021/08/01 00:52:06;;;;;;;7.57;4.40;;;;;;;29.67;44.33;99050.25;4500435;31;33869;-62
2021/08/01 00:54:33;;;;;;;5.93;4.25;;;;;;;29.66;44.31;99042.28;4499955;31;33281;-62
2021/08/01 00:57:05;;;;;;;6.82;4.53;;;;;;;29.66;44.30;99054.13;4500431;31;34703;-63
2021/08/01 00:59:36;;;;;;;7.57;4.55;;;;;;;29.66;44.12;99056.84;4499889;31;34159;-65
2021/08/01 01:02:16;;;;;;;6.43;4.50;;;;;;;29.67;44.09;99066.75;4499048;31;34694;-62
2021/08/01 01:04:47;;;;;;;;;;;;;;;29.66;44.19;99087.09;4499402;31;34161;-65
2021/08/01 01:07:41;;;;;;;5.70;4.00;;;;;;;29.76;43.82;99152.19;4500493;31;34394;-64
2021/08/01 01:10:16;;;;;;;8.43;4.97;;;;;;;29.65;44.06;99184.41;4471051;31;34247;-62
2021/08/01 01:13:10;;;;;;;8.02;4.30;;;;;;;29.62;44.10;99187.75;4499574;31;33842;-66
2021/08/01 01:15:44;;;;;;;8.35;4.53;;;;;;;29.65;44.04;99202.84;4493712;31;33603;-68
2021/08/01 01:18:14;;;;;;;6.20;4.03;;;;;;;29.60;44.01;99217.44;4499923;31;34684;-61
2021/08/01 01:21:17;;;;;;;7.22;4.32;;;;;;;29.59;43.78;99248.78;4498850;31;34199;-62
2021/08/01 01:24:14;;;;;;;6.80;4.28;;;;;;;29.62;43.66;99274.91;4499167;31;34059;-65
2021/08/01 01:27:08;;;;;;;7.12;4.90;;;;;;;29.61;43.87;99279.56;4498640;31;33797;-64
2021/08/01 01:29:47;;;;;;;7.50;4.65;;;;;;;29.62;43.97;99241.91;4498141;31;33356;-65
2021/08/01 01:32:35;;;;;;;7.25;4.72;;;;;;;29.58;44.18;99230.66;4498830;31;34497;-63
2021/08/01 01:35:10;;;;;;;6.37;4.80;;;;;;;29.60;44.14;99236.66;4500200;31;34116;-62
2021/08/01 01:37:38;;;;;;;8.18;4.90;;;;;;;29.59;44.28;99203.97;4498400;31;34501;-63
2021/08/01 01:40:07;;;;;;;8.60;4.97;;;;;;;29.57;44.29;99175.97;4497238;31;85216;-62
2021/08/01 01:42:35;;;;;;;7.28;4.72;;;;;;;29.57;44.25;99163.03;4498272;31;34035;-62
2021/08/01 01:45:04;;;;;;;9.73;5.45;;;;;;;29.56;44.32;99166.88;4485508;31;34066;-62
2021/08/01 01:47:32;;;;;;;10.80;5.90;;;;;;;29.58;44.05;99164.66;4498888;31;33714;-64
2021/08/01 01:50:00;;;;;;;10.80;5.53;;;;;;;29.58;44.20;99159.16;4485256;31;34065;-62
2021/08/01 01:52:29;;;;;;;;;;;;;;;29.55;44.44;99161.66;4498988;31;34760;-62
2021/08/01 01:54:58;;;;;;;9.65;5.70;;;;;;;29.61;44.41;99155.00;4498378;31;35100;-63
2021/08/01 01:57:26;;;;;;;11.38;6.40;;;;;;;29.47;44.86;99150.13;4485540;31;34323;-66
2021/08/01 01:59:54;;;;;;;11.80;6.57;;;;;;;29.39;45.21;99158.12;4485378;31;34130;-63
2021/08/01 02:02:22;;;;;;;9.43;6.03;;;;;;;29.36;45.28;99153.19;4499345;31;34099;-64
2021/08/01 02:04:50;;;;;;;9.02;6.18;;;;;;;29.33;45.46;99145.50;4499474;31;33902;-66
2021/08/01 02:07:20;;;;;;;8.05;5.85;;;;;;;29.29;45.58;99128.78;4499730;31;34840;-62
2021/08/01 02:09:57;;;;;;;8.40;5.90;;;;;;;29.28;45.58;99129.03;4499663;31;34058;-61
2021/08/01 02:12:55;;;;;;;9.60;6.82;;;;;;;29.25;45.65;99115.88;4470961;32;33372;-62
2021/08/01 02:15:31;;;;;;;9.57;6.25;;;;;;;29.21;45.74;99101.87;4470964;31;33922;-64
2021/08/01 02:18:01;;;;;;;8.32;6.15;;;;;;;29.20;45.84;99070.84;4483810;32;33426;-62
2021/08/01 02:20:39;;;;;;;10.60;6.00;;;;;;;29.18;46.03;99056.56;4496799;31;34706;-62
2021/08/01 02:23:09;;;;;;;11.02;6.30;;;;;;;29.18;45.98;99044.75;4498278;31;34241;-63
2021/08/01 02:25:37;;;;;;;8.50;6.12;;;;;;;29.14;46.11;99051.91;4472170;31;33957;-63
2021/08/01 02:28:07;;;;;;;10.82;5.72;;;;;;;29.15;46.16;99057.13;4499033;31;33385;-63
2021/08/01 02:30:35;;;;;;;8.65;5.80;;;;;;;29.11;46.32;99056.06;4499195;31;34173;-62
2021/08/01 02:33:03;;;;;;;8.13;5.85;;;;;;;29.09;46.32;99060.19;4497784;31;34061;-62
2021/08/01 02:35:32;;;;;;;11.63;6.32;;;;;;;29.12;46.37;99054.13;4487213;31;34438;-63
2021/08/01 02:38:00;;;;;;;8.52;5.72;;;;;;;29.05;46.39;99040.72;4501223;31;33424;-62
2021/08/01 02:40:28;;;;;;;7.62;5.95;;;;;;;29.02;46.62;99052.25;4499897;31;33485;-64
2021/08/01 02:42:56;;;;;;;10.52;5.97;;;;;;;29.01;46.75;99053.38;4501203;31;33673;-63
2021/08/01 02:45:24;;;;;;;9.73;6.05;;;;;;;29.04;46.71;99049.22;4501038;31;34008;-63
2021/08/01 02:47:51;;;;;;;7.45;5.53;;;;;;;28.98;46.83;99038.25;4500154;31;33622;-62
2021/08/01 02:50:19;;;;;;;11.18;6.37;;;;;;;28.99;46.87;99014.38;4499958;31;34306;-65
2021/08/01 02:52:58;;;;;;;8.45;6.03;;;;;;;28.98;46.99;99010.78;4486866;31;33942;-63
2021/08/01 02:55:30;;;;;;;10.07;6.03;;;;;;;28.98;46.95;99019.03;4487437;31;33973;-66
2021/08/01 02:57:58;;;;;;;9.48;6.30;;;;;;;28.95;47.05;99016.03;4499825;31;33469;-62
2021/08/01 03:00:26;;;;;;;8.38;5.93;;;;;;;28.92;47.17;99008.34;4501271;31;34021;-62
2021/08/01 03:02:53;;;;;;;7.55;6.03;;;;;;;28.84;47.29;98997.94;4500013;31;34617;-62
2021/08/01 03:05:21;;;;;;;9.90;6.22;;;;;;;28.82;47.52;99003.72;4486795;31;34616;-63
2021/08/01 03:07:49;;;;;;;8.02;5.97;;;;;;;28.85;47.46;99003.13;4487105;31;34178;-62
2021/08/01 03:10:18;;;;;;;8.32;6.05;;;;;;;28.82;47.53;99009.22;4500374;31;34042;-63
2021/08/01 03:12:47;;;;;;;8.20;5.70;;;;;;;28.81;47.62;99014.97;4501007;31;34979;-64
2021/08/01 03:15:15;;;;;;;8.63;6.25;;;;;;;28.79;47.69;99017.19;4501003;31;34916;-62
2021/08/01 03:17:43;;;;;;;9.75;6.12;;;;;;;28.84;47.46;99025.41;4500918;31;34621;-62
2021/08/01 03:20:11;;;;;;;8.75;6.10;;;;;;;28.82;47.46;99025.69;4500941;31;33997;-63
2021/08/01 03:22:42;;;;;;;7.68;5.20;;;;;;;28.79;47.51;99025.41;4500935;31;32785;-66
2021/08/01 03:25:10;;;;;;;9.45;5.62;;;;;;;28.78;47.44;99029.28;4501196;31;33977;-62
2021/08/01 03:27:38;;;;;;;8.85;5.25;;;;;;;28.78;47.51;99032.03;4500882;31;34641;-62
2021/08/01 03:30:06;;;;;;;11.07;5.50;;;;;;;28.79;47.48;99026.25;4500840;31;33926;-62
2021/08/01 03:32:34;;;;;;;8.02;6.07;;;;;;;28.76;47.52;99031.47;4501070;31;33920;-62
2021/08/01 03:35:02;;;;;;;7.87;6.00;;;;;;;28.73;47.60;99025.44;4500726;31;34321;-63
2021/08/01 03:37:30;;;;;;;8.05;5.55;;;;;;;28.73;47.65;99005.41;4500960;31;31905;-62
2021/08/01 03:40:05;;;;;;;8.05;5.62;;;;;;;28.72;47.71;99001.84;4500987;31;33657;-62
2021/08/01 03:42:34;;;;;;;9.23;5.90;;;;;;;28.68;47.73;98989.78;4500801;31;34866;-65
2021/08/01 03:45:01;;;;;;;7.95;5.80;;;;;;;28.67;47.78;98990.84;4500236;31;33836;-63
2021/08/01 03:47:29;;;;;;;8.82;5.93;;;;;;;28.66;47.74;98991.16;4500509;31;34499;-63
2021/08/01 03:49:57;;;;;;;8.88;5.97;;;;;;;28.65;47.84;98993.06;4500582;31;33521;-62
2021/08/01 03:52:24;;;;;;;10.98;6.18;;;;;;;28.61;47.78;99013.94;4500658;31;34917;-62
2021/08/01 03:54:52;;;;;;;9.20;6.00;;;;;;;28.61;47.85;99029.59;4500668;31;34031;-63
2021/08/01 03:57:19;;;;;;;9.60;5.72;;;;;;;28.60;47.79;99048.00;4500522;31;33376;-62
2021/08/01 03:59:47;;;;;;;10.15;5.80;;;;;;;28.62;47.96;99053.19;4499403;31;33949;-62
2021/08/01 04:02:14;;;;;;;12.00;5.80;;;;;;;28.62;48.09;99031.22;4500472;31;34240;-62
2021/08/01 04:04:42;;;;;;;9.80;5.97;;;;;;;28.60;48.18;99004.06;4500443;31;33997;-63
2021/08/01 04:07:10;;;;;;;11.95;6.00;;;;;;;28.58;48.37;98999.97;4500566;31;34152;-62
2021/08/01 04:09:37;;;;;;;8.40;6.22;;;;;;;28.53;48.29;99049.38;4500478;31;34773;-62
2021/08/01 04:12:05;;;;;;;11.12;6.00;;;;;;;28.58;48.39;99041.13;4500396;31;34630;-61
2021/08/01 04:14:33;;;;;;;8.45;6.22;;;;;;;28.59;48.29;99010.69;4500566;31;33486;-63
2021/08/01 04:17:00;;;;;;;10.02;5.97;;;;;;;28.63;48.17;98997.19;4500549;31;33137;-63
2021/08/01 04:19:28;;;;;;;9.95;6.00;;;;;;;28.63;48.34;98987.06;4500468;31;33965;-63
2021/08/01 04:21:56;;;;;;;8.18;6.20;;;;;;;28.63;48.45;98988.94;4500643;31;34830;-63
2021/08/01 04:24:23;;;;;;;9.75;6.50;;;;;;;28.65;48.44;98979.34;4500416;31;34341;-62
2021/08/01 04:26:51;;;;;;;13.95;6.40;;;;;;;28.63;48.53;98961.50;4500348;31;33329;-62
2021/08/01 04:29:18;;;;;;;9.02;6.47;;;;;;;28.62;48.60;98955.19;4500442;31;34644;-62
2021/08/01 04:31:46;;;;;;;8.52;6.05;;;;;;;28.61;48.49;98931.59;4500436;31;35570;-62
2021/08/01 04:34:16;;;;;;;9.43;5.55;;;;;;;28.60;48.51;98897.03;4500374;31;34529;-64
2021/08/01 04:36:43;;;;;;;7.28;5.03;;;;;;;28.62;48.40;98894.00;4500463;31;33682;-63
2021/08/01 04:39:11;;;;;;;8.73;5.40;;;;;;;28.58;48.30;98891.00;4500319;31;34648;-62
2021/08/01 04:41:38;;;;;;;7.32;5.37;;;;;;;28.58;48.22;98855.31;4500038;31;34011;-62
2021/08/01 04:44:06;;;;;;;8.25;5.72;;;;;;;28.57;48.25;98859.16;4500440;31;34165;-62
2021/08/01 04:46:33;;;;;;;8.93;5.40;;;;;;;28.55;48.25;98875.09;4500233;31;34820;-62
2021/08/01 04:49:01;;;;;;;7.10;5.53;;;;;;;28.56;48.29;98893.22;4500090;31;35438;-66
2021/08/01 04:51:29;;;;;;;8.13;5.45;;;;;;;28.56;48.39;98895.13;4498915;31;32379;-63
2021/08/01 04:53:56;;;;;;;9.23;6.03;;;;;;;28.56;48.39;98915.16;4500295;31;35183;-63
2021/08/01 04:56:24;;;;;;;8.05;5.75;;;;;;;28.56;48.52;98917.91;4500298;31;33992;-65
2021/08/01 04:58:51;;;;;;;7.22;5.22;;;;;;;28.56;48.51;98930.81;4499052;31;34061;-62
2021/08/01 05:01:19;;;;;;;8.40;5.12;;;;;;;28.54;48.46;98931.09;4500338;31;34069;-66
2021/08/01 05:03:47;;;;;;;9.43;5.43;;;;;;;28.52;48.25;98947.00;4500351;31;34615;-65
2021/08/01 05:06:14;;;;;;;9.18;5.43;;;;;;;28.52;48.47;98952.50;4500079;31;34620;-63
2021/08/01 05:08:42;;;;;;;8.32;5.62;;;;;;;28.53;48.64;98953.31;4500024;31;34668;-62
2021/08/01 05:11:09;;;;;;;9.18;5.37;;;;;;;28.52;48.57;98936.03;4487033;31;34854;-62
2021/08/01 05:13:37;;;;;;;8.82;6.12;;;;;;;28.52;48.75;98940.72;4484230;32;34084;-64
2021/08/01 05:16:04;;;;;;;7.93;5.57;;;;;;;28.52;48.87;98930.56;4484649;32;34577;-62
2021/08/01 05:18:32;;;;;;;9.80;6.22;;;;;;;28.54;48.97;98920.13;4483991;32;33999;-62
2021/08/01 05:20:59;;;;;;;8.27;5.62;;;;;;;28.52;49.02;98914.09;4484160;32;33997;-63
2021/08/01 05:23:27;;;;;;;8.48;5.90;;;;;;;28.51;49.12;98915.19;4484258;32;34023;-63
2021/08/01 05:25:56;;;;;;;8.43;5.85;;;;;;;28.52;49.23;98905.84;4488919;31;33170;-62
2021/08/01 05:28:24;;;;;;;9.52;5.22;;;;;;;28.51;49.19;98893.25;4500316;31;33982;-64
2021/08/01 05:30:51;;;;;;;7.28;5.50;;;;;;;28.57;49.24;98899.53;4499968;31;34145;-63
2021/08/01 05:33:19;;;;;;;10.68;6.12;;;;;;;28.57;49.25;98896.78;4499642;31;35076;-64
2021/08/01 05:35:46;;;;;;;9.38;6.37;;;;;;;28.53;49.40;98885.53;4499868;31;33618;-62
2021/08/01 05:38:14;;;;;;;8.32;5.25;;;;;;;28.51;49.57;98881.44;4499690;31;34079;-62
2021/08/01 05:40:42;;;;;;;8.13;5.90;;;;;;;28.52;49.64;98883.91;4499424;31;33679;-64
2021/08/01 05:43:10;;;;;;;7.55;5.40;;;;;;;28.50;49.99;98891.59;4499593;31;34565;-61
2021/08/01 05:45:38;;;;;;;9.73;5.40;;;;;;;28.50;49.77;98899.84;4499723;31;33530;-61
2021/08/01 05:48:06;;;;;;;10.70;5.25;;;;;;;28.51;49.85;98892.41;4499601;31;33819;-65
2021/08/01 05:50:33;;;;;;;12.73;6.00;;;;;;;28.52;50.02;98875.66;4499697;31;34226;-61
2021/08/01 05:53:01;;;;;;;12.82;5.93;;;;;;;28.56;49.92;98878.66;4499670;31;33936;-61
2021/08/01 05:55:28;;;;;;;9.38;5.30;;;;;;;28.58;49.79;98876.44;4499506;31;33969;-61
2021/08/01 05:57:56;;;;;;;8.52;5.10;;;;;;;28.60;49.66;98875.06;4499600;31;34704;-64
2021/08/01 06:00:23;;;;;;;16.95;5.20;;;;;;;28.63;49.50;98863.53;4499320;31;34786;-61
2021/08/01 06:02:52;;;;;;;7.25;5.28;;;;;;;28.67;49.41;98864.59;4499249;31;33801;-62
2021/08/01 06:05:21;;;;;;;9.73;5.12;;;;;;;28.69;49.28;98867.06;4499502;31;33845;-62
2021/08/01 06:07:48;;;;;;;8.07;4.87;;;;;;;28.73;49.18;98868.16;4499344;31;34660;-62
2021/08/01 06:10:16;;;;;;;6.75;4.70;;;;;;;28.75;49.12;98870.59;4501040;31;34866;-61
2021/08/01 06:12:43;;;;;;;7.53;4.95;;;;;;;28.77;49.11;98873.87;4501399;31;34067;-62
2021/08/01 06:15:11;;;;;;;7.50;4.85;;;;;;;28.78;49.04;98875.53;4501326;31;33394;-61
2021/08/01 06:17:40;;;;;;;7.57;5.03;;;;;;;28.79;48.99;98875.22;4501493;31;33653;-62
2021/08/01 06:20:08;;;;;;;6.30;4.30;;;;;;;28.81;48.91;98870.28;4501331;31;33722;-63
2021/08/01 06:22:35;;;;;;;10.00;4.93;;;;;;;28.83;48.89;98864.50;4501167;31;33915;-65
2021/08/01 06:25:04;;;;;;;6.78;4.45;;;;;;;28.84;48.76;98847.75;4501371;31;33720;-62
2021/08/01 06:27:31;;;;;;;9.50;4.97;;;;;;;28.87;48.70;98835.37;4501215;31;34204;-63
2021/08/01 06:29:58;;;;;;;7.22;4.87;;;;;;;28.88;48.67;98832.34;4501070;31;34193;-62
2021/08/01 06:32:26;;;;;;;7.62;4.12;;;;;;;28.88;48.66;98837.00;4501252;31;33953;-62
2021/08/01 06:34:54;;;;;;;7.37;4.60;;;;;;;28.90;48.61;98834.78;4501175;31;33362;-63
2021/08/01 06:37:21;;;;;;;6.47;4.45;;;;;;;28.90;48.60;98826.56;4501068;31;34719;-63
2021/08/01 06:39:49;;;;;;;8.15;5.00;;;;;;;28.93;48.51;98836.97;4501447;31;34559;-62
2021/08/01 06:42:16;;;;;;;8.23;4.93;;;;;;;28.93;48.50;98845.22;4501153;31;33903;-66
2021/08/01 06:44:44;;;;;;;9.20;4.90;;;;;;;28.94;48.49;98827.63;4501081;31;33405;-63
2021/08/01 06:47:11;;;;;;;7.93;5.25;;;;;;;28.96;48.47;98833.69;4501139;31;34678;-62
2021/08/01 06:49:39;;;;;;;7.60;4.90;;;;;;;28.96;48.47;98848.25;4501185;31;34508;-62
2021/08/01 06:52:22;;;;;;;6.95;5.35;;;;;;;28.96;48.45;98863.91;4500866;31;34722;-62
2021/08/01 06:54:50;;;;;;;6.90;5.32;;;;;;;28.95;48.50;98882.28;4501054;31;34870;-62
2021/08/01 06:57:18;;;;;;;6.18;4.82;;;;;;;28.98;48.36;98853.44;4500928;31;34937;-62
2021/08/01 06:59:46;;;;;;;7.32;5.10;;;;;;;28.99;48.34;98866.06;4501057;31;34088;-62
2021/08/01 07:02:13;;;;;;;9.52;5.20;;;;;;;28.99;48.31;98852.31;4500959;31;34493;-64
2021/08/01 07:04:41;;;;;;;8.48;5.28;;;;;;;29.02;48.28;98845.47;4500540;31;33519;-62
2021/08/01 07:07:09;;;;;;;6.78;4.35;;;;;;;29.02;48.30;98872.91;4501316;31;34404;-67
2021/08/01 07:09:40;;;;;;;7.87;5.57;;;;;;;29.01;48.28;98874.84;4498258;31;33822;-67
2021/08/01 07:12:08;;;;;;;9.90;5.20;;;;;;;29.03;48.17;98888.28;4485078;32;34565;-66
2021/08/01 07:14:36;;;;;;;6.60;4.70;;;;;;;29.05;48.13;98886.06;4483976;32;33575;-64
2021/08/01 07:17:03;;;;;;;7.25;5.10;;;;;;;29.05;48.26;98908.03;4485106;32;34640;-66
2021/08/01 07:19:31;;;;;;;10.05;4.93;;;;;;;29.04;48.40;98920.94;4484848;32;34094;-64
2021/08/01 07:21:59;;;;;;;12.55;5.07;;;;;;;29.05;48.53;98973.94;4484355;32;33551;-67
2021/08/01 07:24:26;;;;;;;12.95;5.43;;;;;;;29.06;48.35;98984.66;4485131;32;33344;-65
2021/08/01 07:26:55;;;;;;;8.45;5.40;;;;;;;29.07;48.50;98983.56;4484838;32;34689;-62
2021/08/01 07:29:24;;;;;;;8.80;5.37;;;;;;;29.06;48.70;98992.91;4485105;32;34165;-62
2021/08/01 07:31:52;;;;;;;7.85;5.18;;;;;;;29.08;48.42;98943.19;4485036;32;33818;-63
2021/08/01 07:34:20;;;;;;;7.80;5.18;;;;;;;29.08;48.33;98847.03;4484860;32;33506;-62
2021/08/01 07:36:48;;;;;;;7.00;4.93;;;;;;;29.07;48.34;98785.00;4485038;32;34100;-67
2021/08/01 07:39:15;;;;;;;6.70;4.57;;;;;;;29.04;48.48;98807.53;4484841;32;33472;-67
2021/08/01 07:41:43;;;;;;;8.18;5.28;;;;;;;29.02;48.43;98810.56;4484733;32;34151;-65
2021/08/01 07:44:11;;;;;;;9.55;5.30;;;;;;;28.97;48.55;98824.34;4485113;32;33725;-64
2021/08/01 07:46:38;;;;;;;7.10;4.85;;;;;;;29.01;48.43;98863.03;4485162;32;34687;-63
2021/08/01 07:49:06;;;;;;;8.32;5.00;;;;;;;29.03;48.23;98861.62;4484815;32;33923;-65
2021/08/01 07:51:33;;;;;;;7.60;5.30;;;;;;;29.04;48.23;98852.28;4485092;31;33447;-67
2021/08/01 07:54:01;;;;;;;8.70;5.28;;;;;;;29.06;48.39;98882.22;4483722;32;33193;-63
2021/08/01 07:56:28;;;;;;;8.02;5.00;;;;;;;29.08;48.44;98888.25;4484773;32;33612;-67
2021/08/01 07:58:56;;;;;;;8.88;5.80;;;;;;;29.09;48.41;98887.94;4489691;31;34945;-64
2021/08/01 08:01:23;;;;;;;7.05;4.75;;;;;;;29.09;48.51;98898.13;4500805;31;34537;-65
2021/08/01 08:03:51;;;;;;;7.50;5.18;;;;;;;29.12;48.57;98894.81;4500299;31;33438;-67
2021/08/01 08:06:19;;;;;;;11.63;5.00;;;;;;;29.13;48.47;98883.53;4500433;31;34187;-67
2021/08/01 08:08:46;;;;;;;8.20;5.03;;;;;;;29.14;48.49;98870.59;4500525;31;34037;-66
2021/08/01 08:11:14;;;;;;;8.45;5.70;;;;;;;29.14;48.56;98863.19;4500243;31;33671;-67
2021/08/01 08:13:42;;;;;;;8.48;5.60;;;;;;;29.15;48.64;98870.34;4500524;31;32623;-64
2021/08/01 08:16:09;;;;;;;10.82;5.32;;;;;;;29.16;48.60;98857.44;4498663;31;33646;-66
2021/08/01 08:18:37;;;;;;;7.90;5.70;;;;;;;29.16;48.64;98855.50;4484652;32;34663;-67
2021/08/01 08:21:04;;;;;;;7.12;5.43;;;;;;;29.17;48.58;98843.41;4484802;32;34667;-67
2021/08/01 08:23:32;;;;;;;7.43;5.40;;;;;;;29.16;48.62;98841.75;4487549;31;34153;-67
2021/08/01 08:26:01;;;;;;;8.90;5.87;;;;;;;29.17;48.62;98859.06;4500017;31;33926;-63
2021/08/01 08:28:28;;;;;;;14.07;5.53;;;;;;;29.18;48.66;98846.97;4500183;31;34261;-66
2021/08/01 08:30:56;;;;;;;7.32;5.37;;;;;;;29.20;48.63;98834.59;4493154;31;34824;-66
2021/08/01 08:33:24;;;;;;;8.20;5.55;;;;;;;29.20;48.58;98789.81;4492175;31;33279;-68
2021/08/01 08:35:51;;;;;;;10.73;5.80;;;;;;;29.20;48.39;98774.16;4500328;31;34541;-68
2021/08/01 08:38:19;;;;;;;8.07;5.78;;;;;;;29.20;48.55;98757.66;4500031;31;33986;-64
2021/08/01 08:40:47;;;;;;;8.23;5.50;;;;;;;29.21;48.59;98758.47;4499928;31;33833;-68
2021/08/01 08:43:14;;;;;;;6.25;5.05;;;;;;;29.21;48.61;98770.28;4498827;31;33580;-63
2021/08/01 08:45:44;;;;;;;8.23;5.40;;;;;;;29.21;48.78;98762.03;4498853;31;33921;-62
2021/08/01 08:48:12;;;;;;;9.63;5.97;;;;;;;29.22;48.82;98749.94;4500042;31;34206;-63
2021/08/01 08:50:40;;;;;;;7.82;5.60;;;;;;;29.22;48.70;98744.44;4500067;31;34065;-62
2021/08/01 08:53:07;;;;;;;7.12;5.35;;;;;;;29.25;48.77;98725.75;4483000;32;34283;-61
2021/08/01 08:55:35;;;;;;;7.35;5.22;;;;;;;29.26;48.77;98728.22;4483495;32;34959;-67
2021/08/01 08:58:03;;;;;;;7.12;5.30;;;;;;;29.27;48.79;98710.59;4484162;32;33950;-65
2021/08/01 09:00:31;;;;;;;7.50;5.80;;;;;;;29.28;48.81;98717.72;4482872;32;34051;-67
2021/08/01 09:02:59;;;;;;;7.53;6.00;;;;;;;29.27;48.86;98716.09;4484226;32;33775;-66
2021/08/01 09:05:27;;;;;;;9.50;6.00;;;;;;;29.29;48.84;98715.84;4484195;32;33472;-64
2021/08/01 09:07:55;;;;;;;9.32;6.40;;;;;;;29.29;48.96;98719.41;4482715;32;35167;-62
2021/08/01 09:10:23;;;;;;;7.25;5.50;;;;;;;29.29;49.00;98718.56;4491855;31;33872;-62
2021/08/01 09:12:51;;;;;;;7.25;5.87;;;;;;;29.31;48.91;98728.16;4499935;31;33611;-62
2021/08/01 09:15:20;;;;;;;8.55;6.03;;;;;;;29.30;49.05;98729.25;4499967;31;33634;-61
2021/08/01 09:17:48;;;;;;;9.68;5.82;;;;;;;29.34;48.91;98724.00;4499998;31;34279;-62
2021/08/01 09:20:16;;;;;;;8.50;5.85;;;;;;;29.33;49.17;98720.44;4499761;31;34090;-63
2021/08/01 09:22:44;;;;;;;7.40;5.82;;;;;;;29.35;49.22;98722.91;4499527;31;33712;-64
2021/08/01 09:25:20;;;;;;;7.45;6.18;;;;;;;29.35;49.00;98725.66;4498611;31;34711;-64
2021/08/01 09:27:47;;;;;;;7.47;5.53;;;;;;;29.37;48.89;98735.22;4499687;31;34270;-62
2021/08/01 09:30:15;;;;;;;8.15;5.93;;;;;;;29.37;48.91;98717.91;4499661;31;34481;-63
2021/08/01 09:32:47;;;;;;;7.40;6.22;;;;;;;29.38;48.97;98727.81;4499660;31;33591;-65
2021/08/01 09:35:19;;;;;;;7.43;6.00;;;;;;;29.39;48.94;98718.47;4498298;31;34981;-67
2021/08/01 09:37:58;;;;;;;8.82;6.32;;;;;;;29.39;49.17;98732.19;4499649;31;34102;-66
2021/08/01 09:40:30;;;;;;;7.85;5.60;;;;;;;29.40;49.29;98736.56;4499305;31;35323;-67
2021/08/01 09:43:11;;;;;;;8.23;6.15;;;;;;;29.40;48.96;98729.16;4497383;31;32089;-64
2021/08/01 09:45:39;;;;;;;7.45;5.50;;;;;;;29.41;49.04;98736.28;4499302;31;34129;-66
2021/08/01 09:48:18;;;;;;;8.43;6.10;;;;;;;29.43;48.98;98742.31;4499459;31;34063;-65
2021/08/01 09:51:01;;;;;;;7.12;5.75;;;;;;;29.44;48.90;98737.63;4499467;31;33949;-64
2021/08/01 09:53:29;;;;;;;7.50;6.15;;;;;;;29.46;48.83;98744.47;4498246;31;33638;-63
2021/08/01 09:56:11;;;;;;;8.20;6.50;;;;;;;29.44;48.91;98735.69;4499494;31;35008;-65
2021/08/01 09:58:38;;;;;;;7.95;6.22;;;;;;;29.45;48.95;98717.28;4498315;31;33861;-67
2021/08/01 10:01:06;;;;;;;8.57;6.53;;;;;;;29.42;49.11;98726.91;4499611;31;34655;-64
2021/08/01 10:03:35;;;;;;;10.00;6.57;;;;;;;29.43;49.15;98739.56;4499349;31;33487;-67
2021/08/01 10:06:13;;;;;;;9.85;6.85;;;;;;;29.43;49.23;98741.50;4498880;31;33774;-63
2021/08/01 10:08:46;;;;;;;8.27;6.80;;;;;;;29.45;49.24;98736.50;4499457;31;33823;-63
2021/08/01 10:11:16;;;;;;;7.62;6.37;;;;;;;29.43;49.23;98720.31;4499115;31;34201;-62
2021/08/01 10:13:45;;;;;;;8.50;6.50;;;;;;;29.44;49.14;98721.97;4499763;31;34017;-65
2021/08/01 10:16:13;;;;;;;7.43;6.30;;;;;;;29.44;49.01;98707.41;4499055;31;34162;-63
2021/08/01 10:18:41;;;;;;;9.07;6.30;;;;;;;29.44;48.71;98694.47;4495061;31;33709;-68
2021/08/01 10:21:10;;;;;;;11.02;7.40;;;;;;;29.46;48.79;98683.19;4496969;31;33981;-68
2021/08/01 10:23:55;;;;;;;9.88;7.80;;;;;;;29.48;49.60;98675.47;4493961;31;33544;-70
2021/08/01 10:26:24;;;;;;;9.25;7.70;;;;;;;29.49;50.23;98668.88;4481994;32;33509;-64
2021/08/01 10:28:53;;;;;;;9.80;7.03;;;;;;;29.48;50.14;98667.22;4481863;32;34837;-72
2021/08/01 10:31:30;;;;;;;11.70;7.03;;;;;;;29.52;50.04;98664.69;4481863;32;34414;-65
2021/08/01 10:34:01;;;;;;;11.95;7.80;;;;;;;29.55;50.12;98670.47;4481938;32;33742;-65
2021/08/01 10:36:29;;;;;;;8.85;7.95;;;;;;;29.54;50.25;98662.47;4483016;32;34330;-66
2021/08/01 10:39:01;;;;;;;10.90;7.78;;;;;;;29.55;50.37;98653.16;4481889;32;34066;-65
2021/08/01 10:41:31;;;;;;;13.23;8.15;;;;;;;29.57;50.45;98638.00;4468863;32;34340;-64
2021/08/01 10:44:02;;;;;;;;;;;;;;;29.58;50.63;98641.56;4483328;32;33373;-65
2021/08/01 10:46:30;;;;;;;8.90;7.62;;;;;;;29.73;50.29;98635.84;4482188;32;35060;-65
2021/08/01 10:48:58;;;;;;;11.32;8.07;;;;;;;29.65;50.58;98636.50;4481652;32;33998;-67
2021/08/01 10:51:27;;;;;;;9.32;7.87;;;;;;;29.64;50.64;98626.63;4468913;32;33154;-68
2021/08/01 10:54:20;;;;;;;12.20;8.35;;;;;;;29.63;50.76;98620.31;4481785;32;33236;-64
2021/08/01 10:56:48;;;;;;;9.82;7.70;;;;;;;29.68;50.50;98617.50;4485217;32;33538;-66
2021/08/01 10:59:43;;;;;;;9.40;7.22;;;;;;;29.67;50.44;98615.88;4483937;32;34196;-70
2021/08/01 11:02:18;;;;;;;11.02;8.52;;;;;;;29.72;50.28;98604.81;4485392;32;34002;-70
2021/08/01 11:04:47;;;;;;;8.70;7.47;;;;;;;29.70;50.21;98593.31;4484783;32;34948;-71
2021/08/01 11:07:28;;;;;;;9.55;8.27;;;;;;;29.69;50.17;98602.62;4485434;32;34029;-69
2021/08/01 11:10:07;;;;;;;;;;;;;;;29.74;49.86;98599.81;4490030;31;34837;-67
2021/08/01 11:12:35;;;;;;;9.57;7.75;;;;;;;29.85;49.56;98611.50;4494512;31;34261;-65
2021/08/01 11:15:05;;;;;;;10.90;8.15;;;;;;;29.78;49.72;98619.28;4483783;32;33717;-63
2021/08/01 11:17:48;;;;;;;8.63;7.72;;;;;;;29.74;49.70;98621.81;4484882;32;33948;-68
2021/08/01 11:20:15;;;;;;;10.15;8.10;;;;;;;29.77;49.59;98619.59;4485094;32;34023;-66
2021/08/01 11:22:43;;;;;;;10.43;7.85;;;;;;;29.75;49.55;98608.88;4484789;32;33833;-68
2021/08/01 11:25:26;;;;;;;10.98;8.13;;;;;;;29.76;49.54;98612.47;4484557;32;34489;-67
2021/08/01 11:28:09;;;;;;;9.55;8.27;;;;;;;29.80;49.44;98616.22;4483726;32;33967;-66
2021/08/01 11:30:49;;;;;;;12.40;7.80;;;;;;;29.78;49.58;98622.03;4485069;32;34370;-64
2021/08/01 11:33:32;;;;;;;9.98;7.90;;;;;;;29.79;49.46;98617.34;4484931;32;33868;-65
2021/08/01 11:36:18;;;;;;;12.95;8.25;;;;;;;29.80;49.42;98621.72;4484833;32;33100;-67
2021/08/01 11:38:52;;;;;;;9.90;8.32;;;;;;;29.77;49.40;98625.09;4489569;31;35316;-67
2021/08/01 11:41:25;;;;;;;12.32;8.45;;;;;;;29.76;49.33;98620.72;4500441;31;34137;-68
2021/08/01 11:43:58;;;;;;;9.25;7.90;;;;;;;29.76;49.24;98618.78;4500530;31;34120;-65
2021/08/01 11:46:26;;;;;;;12.00;8.60;;;;;;;29.76;49.19;98607.78;4500253;31;33344;-66